sensor_id;sensor_type;location;lat;lon;timestamp;pressure;altitude;pressure_sealevel;temperature;humidity
10064;BME280;5071;52.360;13.134;2023-02-13T00:04:06;103266.50;;;7.15;100.00
10064;BME280;5071;52.360;13.134;2023-02-13T00:09:08;103254.78;;;7.08;100.00
10064;BME280;5071;52.360;13.134;2023-02-13T00:14:12;103256.56;;;7.09;100.00
10064;BME280;5071;52.360;13.134;2023-02-13T00:19:15;103255.94;;;7.15;100.00
10064;BME280;5071;52.360;13.134;2023-02-13T00:24:17;103261.69;;;7.26;100.00
10064;BME280;5071;52.360;13.134;2023-02-13T00:29:21;103261.16;;;7.34;100.00
10064;BME280;5071;52.360;13.134;2023-02-13T00:34:23;103273.84;;;7.22;100.00
10064;BME280;5071;52.360;13.134;2023-02-13T00:39:25;103267.91;;;7.07;100.00
10064;BME280;5071;52.360;13.134;2023-02-13T00:44:28;103273.28;;;6.89;100.00
10064;BME280;5071;52.360;13.134;2023-02-13T00:49:30;103264.78;;;6.75;100.00
10064;BME280;5071;52.360;13.134;2023-02-13T00:54:32;103271.72;;;6.73;100.00
10064;BME280;5071;52.360;13.134;2023-02-13T00:59:36;103270.06;;;6.75;100.00
10064;BME280;5071;52.360;13.134;2023-02-13T01:04:38;103274.56;;;6.77;100.00
10064;BME280;5071;52.360;13.134;2023-02-13T01:09:40;103273.00;;;6.61;100.00
10064;BME280;5071;52.360;13.134;2023-02-13T01:14:44;103273.81;;;6.80;100.00
10064;BME280;5071;52.360;13.134;2023-02-13T01:19:46;103270.63;;;6.68;100.00
10064;BME280;5071;52.360;13.134;2023-02-13T01:24:48;103272.84;;;6.58;100.00
10064;BME280;5071;52.360;13.134;2023-02-13T01:29:52;103260.16;;;6.50;100.00
10064;BME280;5071;52.360;13.134;2023-02-13T01:34:53;103271.34;;;6.44;100.00
10064;BME280;5071;52.360;13.134;2023-02-13T01:39:56;103255.44;;;6.42;100.00
10064;BME280;5071;52.360;13.134;2023-02-13T01:45:00;103261.47;;;6.40;100.00
10064;BME280;5071;52.360;13.134;2023-02-13T01:50:06;103251.59;;;6.36;100.00
10064;BME280;5071;52.360;13.134;2023-02-13T01:55:10;103258.97;;;6.43;100.00
10064;BME280;5071;52.360;13.134;2023-02-13T02:00:15;103253.41;;;6.56;100.00
10064;BME280;5071;52.360;13.134;2023-02-13T02:05:20;103249.53;;;6.48;100.00
10064;BME280;5071;52.360;13.134;2023-02-13T02:10:23;103242.31;;;6.44;100.00
10064;BME280;5071;52.360;13.134;2023-02-13T02:15:27;103257.88;;;6.57;100.00
10064;BME280;5071;52.360;13.134;2023-02-13T02:20:45;103255.97;;;6.55;100.00
10064;BME280;5071;52.360;13.134;2023-02-13T02:26:25;103257.00;;;6.58;100.00
10064;BME280;5071;52.360;13.134;2023-02-13T02:32:00;103260.91;;;6.67;100.00
10064;BME280;5071;52.360;13.134;2023-02-13T02:37:24;103273.16;;;6.65;100.00
10064;BME280;5071;52.360;13.134;2023-02-13T02:42:37;103263.22;;;6.59;100.00
10064;BME280;5071;52.360;13.134;2023-02-13T02:47:51;103262.50;;;6.63;100.00
10064;BME280;5071;52.360;13.134;2023-02-13T02:53:07;103257.00;;;6.58;100.00
10064;BME280;5071;52.360;13.134;2023-02-13T02:58:18;103262.06;;;6.73;100.00
10064;BME280;5071;52.360;13.134;2023-02-13T03:03:23;103267.28;;;6.72;100.00
10064;BME280;5071;52.360;13.134;2023-02-13T03:08:28;103269.66;;;6.66;100.00
10064;BME280;5071;52.360;13.134;2023-02-13T03:13:36;103263.00;;;6.54;100.00
10064;BME280;5071;52.360;13.134;2023-02-13T03:18:43;103272.56;;;6.52;100.00
10064;BME280;5071;52.360;13.134;2023-02-13T03:23:53;103274.78;;;6.43;100.00
10064;BME280;5071;52.360;13.134;2023-02-13T03:29:08;103270.22;;;6.39;100.00
10064;BME280;5071;52.360;13.134;2023-02-13T03:34:16;103269.44;;;6.41;100.00
10064;BME280;5071;52.360;13.134;2023-02-13T03:39:27;103253.41;;;6.37;100.00
10064;BME280;5071;52.360;13.134;2023-02-13T03:44:36;103258.78;;;6.38;100.00
10064;BME280;5071;52.360;13.134;2023-02-13T03:49:46;103266.88;;;6.43;100.00
10064;BME280;5071;52.360;13.134;2023-02-13T03:54:53;103264.94;;;6.39;100.00
10064;BME280;5071;52.360;13.134;2023-02-13T03:59:57;103263.28;;;6.41;100.00
10064;BME280;5071;52.360;13.134;2023-02-13T04:05:07;103256.91;;;6.55;100.00
10064;BME280;5071;52.360;13.134;2023-02-13T04:10:12;103252.56;;;6.38;100.00
10064;BME280;5071;52.360;13.134;2023-02-13T04:15:18;103262.69;;;6.29;100.00
10064;BME280;5071;52.360;13.134;2023-02-13T04:20:25;103255.47;;;6.25;100.00
10064;BME280;5071;52.360;13.134;2023-02-13T04:25:28;103250.56;;;6.32;100.00
10064;BME280;5071;52.360;13.134;2023-02-13T04:30:30;103248.53;;;6.27;100.00
10064;BME280;5071;52.360;13.134;2023-02-13T04:35:33;103246.31;;;6.16;100.00
10064;BME280;5071;52.360;13.134;2023-02-13T04:40:35;103240.63;;;6.27;100.00
10064;BME280;5071;52.360;13.134;2023-02-13T04:45:37;103238.69;;;6.22;100.00
10064;BME280;5071;52.360;13.134;2023-02-13T04:50:41;103230.97;;;6.08;100.00
10064;BME280;5071;52.360;13.134;2023-02-13T04:55:43;103232.91;;;6.12;100.00
10064;BME280;5071;52.360;13.134;2023-02-13T05:00:45;103230.06;;;6.07;100.00
10064;BME280;5071;52.360;13.134;2023-02-13T05:05:49;103233.53;;;6.06;100.00
10064;BME280;5071;52.360;13.134;2023-02-13T05:10:51;103238.19;;;6.12;100.00
10064;BME280;5071;52.360;13.134;2023-02-13T05:15:53;103241.59;;;6.09;100.00
10064;BME280;5071;52.360;13.134;2023-02-13T05:20:57;103231.06;;;6.09;100.00
10064;BME280;5071;52.360;13.134;2023-02-13T05:25:59;103245.09;;;6.08;100.00
10064;BME280;5071;52.360;13.134;2023-02-13T05:31:02;103243.09;;;6.04;100.00
10064;BME280;5071;52.360;13.134;2023-02-13T05:36:06;103245.75;;;6.04;100.00
10064;BME280;5071;52.360;13.134;2023-02-13T05:41:09;103257.22;;;6.05;100.00
10064;BME280;5071;52.360;13.134;2023-02-13T05:46:11;103248.47;;;6.06;100.00
10064;BME280;5071;52.360;13.134;2023-02-13T05:51:14;103259.91;;;6.06;100.00
10064;BME280;5071;52.360;13.134;2023-02-13T05:56:16;103251.09;;;6.06;100.00
10064;BME280;5071;52.360;13.134;2023-02-13T06:01:19;103253.72;;;6.06;100.00
10064;BME280;5071;52.360;13.134;2023-02-13T06:06:22;103260.75;;;6.05;100.00
10064;BME280;5071;52.360;13.134;2023-02-13T06:11:24;103267.69;;;6.03;100.00
10064;BME280;5071;52.360;13.134;2023-02-13T06:16:26;103271.06;;;6.00;100.00
10064;BME280;5071;52.360;13.134;2023-02-13T06:21:30;103280.72;;;6.00;100.00
10064;BME280;5071;52.360;13.134;2023-02-13T06:26:32;103276.00;;;5.94;100.00
10064;BME280;5071;52.360;13.134;2023-02-13T06:31:34;103278.75;;;5.96;100.00
10064;BME280;5071;52.360;13.134;2023-02-13T06:36:37;103282.19;;;5.95;100.00
10064;BME280;5071;52.360;13.134;2023-02-13T06:41:40;103284.78;;;5.93;100.00
10064;BME280;5071;52.360;13.134;2023-02-13T06:46:42;103284.03;;;5.96;100.00
10064;BME280;5071;52.360;13.134;2023-02-13T06:51:45;103285.59;;;5.92;100.00
10064;BME280;5071;52.360;13.134;2023-02-13T06:56:47;103302.38;;;5.94;100.00
10064;BME280;5071;52.360;13.134;2023-02-13T07:01:49;103295.31;;;5.93;100.00
10064;BME280;5071;52.360;13.134;2023-02-13T07:06:54;103299.84;;;5.96;100.00
10064;BME280;5071;52.360;13.134;2023-02-13T07:11:57;103291.72;;;5.91;100.00
10064;BME280;5071;52.360;13.134;2023-02-13T07:16:59;103298.13;;;5.96;100.00
10064;BME280;5071;52.360;13.134;2023-02-13T07:22:02;103307.06;;;6.00;100.00
10064;BME280;5071;52.360;13.134;2023-02-13T07:27:05;103300.91;;;5.99;100.00
10064;BME280;5071;52.360;13.134;2023-02-13T07:32:07;103301.06;;;6.02;100.00
10064;BME280;5071;52.360;13.134;2023-02-13T07:37:10;103302.25;;;6.09;100.00
10064;BME280;5071;52.360;13.134;2023-02-13T07:42:13;103298.78;;;6.10;100.00
10064;BME280;5071;52.360;13.134;2023-02-13T07:47:15;103295.31;;;6.11;100.00
10064;BME280;5071;52.360;13.134;2023-02-13T07:52:21;103297.13;;;6.12;100.00
10064;BME280;5071;52.360;13.134;2023-02-13T07:57:23;103306.13;;;6.17;100.00
10064;BME280;5071;52.360;13.134;2023-02-13T08:02:25;103303.66;;;6.20;100.00
10064;BME280;5071;52.360;13.134;2023-02-13T08:07:29;103313.59;;;6.26;100.00
10064;BME280;5071;52.360;13.134;2023-02-13T08:12:33;103312.81;;;6.29;100.00
10064;BME280;5071;52.360;13.134;2023-02-13T08:17:36;103312.19;;;6.34;100.00
10064;BME280;5071;52.360;13.134;2023-02-13T08:22:40;103315.00;;;6.37;100.00
10064;BME280;5071;52.360;13.134;2023-02-13T08:27:42;103318.75;;;6.42;100.00
10064;BME280;5071;52.360;13.134;2023-02-13T08:32:44;103326.88;;;6.47;100.00
10064;BME280;5071;52.360;13.134;2023-02-13T08:38:00;103320.66;;;6.65;100.00
10064;BME280;5071;52.360;13.134;2023-02-13T08:43:04;103329.00;;;6.74;100.00
10064;BME280;5071;52.360;13.134;2023-02-13T08:48:07;103330.63;;;6.72;100.00
10064;BME280;5071;52.360;13.134;2023-02-13T08:53:10;103333.34;;;6.73;100.00
10064;BME280;5071;52.360;13.134;2023-02-13T08:58:12;103328.41;;;6.81;100.00
10064;BME280;5071;52.360;13.134;2023-02-13T09:03:15;103332.56;;;6.95;100.00
10064;BME280;5071;52.360;13.134;2023-02-13T09:08:18;103336.03;;;6.94;100.00
10064;BME280;5071;52.360;13.134;2023-02-13T09:13:21;103326.28;;;7.13;100.00
10064;BME280;5071;52.360;13.134;2023-02-13T09:18:23;103325.66;;;7.18;99.41
10064;BME280;5071;52.360;13.134;2023-02-13T09:23:29;103335.53;;;7.23;98.98
10064;BME280;5071;52.360;13.134;2023-02-13T09:28:33;103339.06;;;7.23;98.94
10064;BME280;5071;52.360;13.134;2023-02-13T09:33:36;103345.88;;;7.18;98.93
10064;BME280;5071;52.360;13.134;2023-02-13T09:38:40;103347.28;;;7.10;99.84
10064;BME280;5071;52.360;13.134;2023-02-13T09:43:45;103347.00;;;7.04;100.00
10064;BME280;5071;52.360;13.134;2023-02-13T09:48:50;103338.88;;;6.99;100.00
10064;BME280;5071;52.360;13.134;2023-02-13T09:53:58;103351.97;;;7.17;100.00
10064;BME280;5071;52.360;13.134;2023-02-13T09:59:04;103348.66;;;7.21;100.00
10064;BME280;5071;52.360;13.134;2023-02-13T10:04:28;103349.50;;;7.41;99.46
10064;BME280;5071;52.360;13.134;2023-02-13T10:09:39;103349.47;;;7.39;98.16
10064;BME280;5071;52.360;13.134;2023-02-13T10:14:52;103341.91;;;7.49;98.34
10064;BME280;5071;52.360;13.134;2023-02-13T10:20:01;103334.69;;;7.45;97.89
10064;BME280;5071;52.360;13.134;2023-02-13T10:25:13;103341.78;;;7.46;97.55
10064;BME280;5071;52.360;13.134;2023-02-13T10:30:20;103342.28;;;7.58;97.47
10064;BME280;5071;52.360;13.134;2023-02-13T10:35:27;103332.34;;;7.94;94.86
10064;BME280;5071;52.360;13.134;2023-02-13T10:40:36;103328.09;;;7.98;94.05
10064;BME280;5071;52.360;13.134;2023-02-13T10:45:50;103320.69;;;8.12;93.84
10064;BME280;5071;52.360;13.134;2023-02-13T10:51:00;103314.50;;;8.11;93.15
10064;BME280;5071;52.360;13.134;2023-02-13T10:56:22;103316.56;;;8.18;91.69
10064;BME280;5071;52.360;13.134;2023-02-13T11:01:32;103314.72;;;7.95;93.26
10064;BME280;5071;52.360;13.134;2023-02-13T11:06:41;103319.66;;;8.08;92.83
10064;BME280;5071;52.360;13.134;2023-02-13T11:11:44;103308.00;;;8.03;92.53
10064;BME280;5071;52.360;13.134;2023-02-13T11:16:49;103300.31;;;7.87;93.70
10064;BME280;5071;52.360;13.134;2023-02-13T11:21:54;103309.94;;;7.85;93.57
10064;BME280;5071;52.360;13.134;2023-02-13T11:27:00;103297.53;;;7.84;93.51
10064;BME280;5071;52.360;13.134;2023-02-13T11:32:20;103299.72;;;7.94;93.17
10064;BME280;5071;52.360;13.134;2023-02-13T11:37:25;103295.38;;;7.96;92.83
10064;BME280;5071;52.360;13.134;2023-02-13T11:42:31;103297.84;;;7.91;92.86
10064;BME280;5071;52.360;13.134;2023-02-13T11:47:37;103290.19;;;7.99;92.02
10064;BME280;5071;52.360;13.134;2023-02-13T11:52:40;103280.63;;;8.03;91.64
10064;BME280;5071;52.360;13.134;2023-02-13T11:57:55;103274.09;;;8.15;89.71
10064;BME280;5071;52.360;13.134;2023-02-13T12:02:57;103273.56;;;8.24;89.59
10064;BME280;5071;52.360;13.134;2023-02-13T12:08:00;103282.13;;;8.41;87.69
10064;BME280;5071;52.360;13.134;2023-02-13T12:13:12;103282.06;;;8.40;88.03
10064;BME280;5071;52.360;13.134;2023-02-13T12:18:18;103269.50;;;8.34;87.27
10064;BME280;5071;52.360;13.134;2023-02-13T12:23:30;103266.72;;;8.53;86.72
10064;BME280;5071;52.360;13.134;2023-02-13T12:28:48;103269.75;;;8.17;88.26
10064;BME280;5071;52.360;13.134;2023-02-13T12:34:18;103269.16;;;8.25;88.54
10064;BME280;5071;52.360;13.134;2023-02-13T12:39:25;103260.69;;;8.35;88.07
10064;BME280;5071;52.360;13.134;2023-02-13T12:44:56;103257.97;;;8.32;87.94
10064;BME280;5071;52.360;13.134;2023-02-13T13:01:18;103271.81;;;8.02;87.14
10064;BME280;5071;52.360;13.134;2023-02-13T13:06:48;103266.41;;;7.99;87.76
10064;BME280;5071;52.360;13.134;2023-02-13T13:12:12;103279.69;;;8.01;88.57
10064;BME280;5071;52.360;13.134;2023-02-13T13:17:30;103274.38;;;7.78;88.46
10064;BME280;5071;52.360;13.134;2023-02-13T13:22:39;103263.75;;;7.76;89.40
10064;BME280;5071;52.360;13.134;2023-02-13T13:27:46;103260.00;;;7.71;91.17
10064;BME280;5071;52.360;13.134;2023-02-13T13:32:56;103244.50;;;7.58;90.72
10064;BME280;5071;52.360;13.134;2023-02-13T13:38:07;103261.22;;;7.57;91.01
10064;BME280;5071;52.360;13.134;2023-02-13T13:43:20;103256.00;;;7.58;90.52
10064;BME280;5071;52.360;13.134;2023-02-13T13:48:44;103256.53;;;7.72;90.15
10064;BME280;5071;52.360;13.134;2023-02-13T13:54:17;103255.94;;;7.79;89.59
10064;BME280;5071;52.360;13.134;2023-02-13T14:05:16;103247.94;;;7.78;89.18
10064;BME280;5071;52.360;13.134;2023-02-13T14:16:09;103237.88;;;7.47;90.76
10064;BME280;5071;52.360;13.134;2023-02-13T14:21:21;103243.66;;;7.59;90.62
10064;BME280;5071;52.360;13.134;2023-02-13T14:26:31;103236.34;;;7.52;90.56
10064;BME280;5071;52.360;13.134;2023-02-13T14:31:34;103225.75;;;7.52;90.59
10064;BME280;5071;52.360;13.134;2023-02-13T14:36:39;103218.56;;;7.70;90.45
10064;BME280;5071;52.360;13.134;2023-02-13T14:41:55;103220.31;;;7.70;90.21
10064;BME280;5071;52.360;13.134;2023-02-13T14:46:59;103211.38;;;7.66;90.41
10064;BME280;5071;52.360;13.134;2023-02-13T14:52:06;103203.28;;;7.86;89.80
10064;BME280;5071;52.360;13.134;2023-02-13T14:57:16;103206.53;;;7.78;89.32
10064;BME280;5071;52.360;13.134;2023-02-13T15:02:22;103212.41;;;7.71;89.43
10064;BME280;5071;52.360;13.134;2023-02-13T15:07:28;103199.25;;;7.50;90.84
10064;BME280;5071;52.360;13.134;2023-02-13T15:12:33;103201.53;;;7.64;90.47
10064;BME280;5071;52.360;13.134;2023-02-13T15:17:35;103193.03;;;7.71;90.06
10064;BME280;5071;52.360;13.134;2023-02-13T15:22:41;103199.53;;;7.56;90.25
10064;BME280;5071;52.360;13.134;2023-02-13T15:27:50;103211.22;;;7.40;90.47
10064;BME280;5071;52.360;13.134;2023-02-13T15:32:54;103205.56;;;7.31;90.86
10064;BME280;5071;52.360;13.134;2023-02-13T15:37:59;103205.94;;;7.40;90.17
10064;BME280;5071;52.360;13.134;2023-02-13T15:43:02;103198.47;;;7.30;90.43
10064;BME280;5071;52.360;13.134;2023-02-13T15:48:04;103184.19;;;7.25;91.16
10064;BME280;5071;52.360;13.134;2023-02-13T15:53:13;103179.69;;;7.23;91.25
10064;BME280;5071;52.360;13.134;2023-02-13T15:58:16;103177.63;;;7.15;91.50
10064;BME280;5071;52.360;13.134;2023-02-13T16:03:18;103176.38;;;7.07;91.57
10064;BME280;5071;52.360;13.134;2023-02-13T16:08:31;103170.06;;;7.04;91.60
10064;BME280;5071;52.360;13.134;2023-02-13T16:13:34;103160.38;;;7.03;91.71
10064;BME280;5071;52.360;13.134;2023-02-13T16:18:39;103165.50;;;6.99;91.96
10064;BME280;5071;52.360;13.134;2023-02-13T16:23:44;103158.88;;;6.88;91.99
10064;BME280;5071;52.360;13.134;2023-02-13T16:28:46;103163.19;;;6.86;92.20
10064;BME280;5071;52.360;13.134;2023-02-13T16:33:49;103182.53;;;6.85;92.06
10064;BME280;5071;52.360;13.134;2023-02-13T16:38:53;103188.94;;;6.92;90.98
10064;BME280;5071;52.360;13.134;2023-02-13T16:43:56;103179.66;;;7.01;90.20
10064;BME280;5071;52.360;13.134;2023-02-13T16:49:16;103181.34;;;6.99;89.48
10064;BME280;5071;52.360;13.134;2023-02-13T16:54:25;103193.00;;;7.05;88.96
10064;BME280;5071;52.360;13.134;2023-02-13T16:59:36;103196.03;;;7.14;89.56
10064;BME280;5071;52.360;13.134;2023-02-13T17:04:43;103201.97;;;6.87;90.70
10064;BME280;5071;52.360;13.134;2023-02-13T17:09:58;103197.13;;;6.77;91.64
10064;BME280;5071;52.360;13.134;2023-02-13T17:15:01;103199.75;;;6.77;91.87
10064;BME280;5071;52.360;13.134;2023-02-13T17:20:04;103199.66;;;6.74;91.84
10064;BME280;5071;52.360;13.134;2023-02-13T17:25:15;103190.63;;;6.69;92.64
10064;BME280;5071;52.360;13.134;2023-02-13T17:30:19;103194.78;;;6.64;93.28
10064;BME280;5071;52.360;13.134;2023-02-13T17:35:22;103202.72;;;6.64;93.41
10064;BME280;5071;52.360;13.134;2023-02-13T17:40:26;103206.53;;;6.70;93.56
10064;BME280;5071;52.360;13.134;2023-02-13T17:45:32;103206.47;;;6.69;93.63
10064;BME280;5071;52.360;13.134;2023-02-13T17:50:35;103196.09;;;6.73;93.75
10064;BME280;5071;52.360;13.134;2023-02-13T17:55:39;103207.50;;;6.93;92.61
10064;BME280;5071;52.360;13.134;2023-02-13T18:00:41;103206.97;;;6.81;92.90
10064;BME280;5071;52.360;13.134;2023-02-13T18:05:45;103211.03;;;6.73;92.72
10064;BME280;5071;52.360;13.134;2023-02-13T18:10:49;103214.22;;;6.85;92.60
10064;BME280;5071;52.360;13.134;2023-02-13T18:15:51;103216.38;;;6.74;92.36
10064;BME280;5071;52.360;13.134;2023-02-13T18:20:54;103216.59;;;6.59;92.83
10064;BME280;5071;52.360;13.134;2023-02-13T18:26:06;103218.41;;;6.60;93.46
10064;BME280;5071;52.360;13.134;2023-02-13T18:31:08;103216.44;;;6.76;92.50
10064;BME280;5071;52.360;13.134;2023-02-13T18:36:11;103210.56;;;6.83;91.52
10064;BME280;5071;52.360;13.134;2023-02-13T18:41:14;103212.84;;;6.95;90.87
10064;BME280;5071;52.360;13.134;2023-02-13T18:46:16;103208.66;;;7.00;90.17
10064;BME280;5071;52.360;13.134;2023-02-13T18:51:18;103204.28;;;7.00;89.73
10064;BME280;5071;52.360;13.134;2023-02-13T18:56:22;103197.59;;;6.88;90.44
10064;BME280;5071;52.360;13.134;2023-02-13T19:01:24;103200.78;;;7.01;90.20
10064;BME280;5071;52.360;13.134;2023-02-13T19:06:26;103197.84;;;6.94;89.93
10064;BME280;5071;52.360;13.134;2023-02-13T19:11:30;103200.09;;;6.85;90.60
10064;BME280;5071;52.360;13.134;2023-02-13T19:16:33;103193.97;;;6.86;90.53
10064;BME280;5071;52.360;13.134;2023-02-13T19:21:37;103203.56;;;6.84;90.02
10064;BME280;5071;52.360;13.134;2023-02-13T19:26:42;103200.63;;;6.76;89.49
10064;BME280;5071;52.360;13.134;2023-02-13T19:31:44;103202.66;;;6.83;89.34
10064;BME280;5071;52.360;13.134;2023-02-13T19:36:46;103207.13;;;6.84;88.96
10064;BME280;5071;52.360;13.134;2023-02-13T19:41:49;103209.56;;;6.79;89.23
10064;BME280;5071;52.360;13.134;2023-02-13T19:46:52;103214.56;;;6.73;89.68
10064;BME280;5071;52.360;13.134;2023-02-13T19:51:54;103225.91;;;6.71;89.70
10064;BME280;5071;52.360;13.134;2023-02-13T19:56:58;103218.94;;;6.73;89.63
10064;BME280;5071;52.360;13.134;2023-02-13T20:02:00;103224.78;;;6.66;89.49
10064;BME280;5071;52.360;13.134;2023-02-13T20:07:06;103231.44;;;6.77;89.38
10064;BME280;5071;52.360;13.134;2023-02-13T20:12:09;103235.25;;;6.64;89.64
10064;BME280;5071;52.360;13.134;2023-02-13T20:17:12;103239.38;;;6.57;89.76
10064;BME280;5071;52.360;13.134;2023-02-13T20:22:14;103244.53;;;6.54;89.89
10064;BME280;5071;52.360;13.134;2023-02-13T20:27:18;103247.78;;;6.68;89.57
10064;BME280;5071;52.360;13.134;2023-02-13T20:32:20;103242.50;;;6.49;89.93
10064;BME280;5071;52.360;13.134;2023-02-13T20:37:22;103252.28;;;6.51;89.69
10064;BME280;5071;52.360;13.134;2023-02-13T20:42:26;103249.06;;;6.57;89.26
10064;BME280;5071;52.360;13.134;2023-02-13T20:47:28;103239.78;;;6.47;89.31
10064;BME280;5071;52.360;13.134;2023-02-13T20:52:31;103238.41;;;6.36;89.73
10064;BME280;5071;52.360;13.134;2023-02-13T20:57:36;103253.19;;;6.32;90.43
10064;BME280;5071;52.360;13.134;2023-02-13T21:02:39;103258.53;;;6.34;90.35
10064;BME280;5071;52.360;13.134;2023-02-13T21:07:41;103257.56;;;6.32;90.21
10064;BME280;5071;52.360;13.134;2023-02-13T21:12:45;103258.81;;;6.40;88.77
10064;BME280;5071;52.360;13.134;2023-02-13T21:17:47;103263.75;;;6.32;88.49
10064;BME280;5071;52.360;13.134;2023-02-13T21:22:49;103264.38;;;6.27;87.54
10064;BME280;5071;52.360;13.134;2023-02-13T21:27:53;103260.28;;;6.33;87.29
10064;BME280;5071;52.360;13.134;2023-02-13T21:32:55;103264.53;;;6.30;86.79
10064;BME280;5071;52.360;13.134;2023-02-13T21:37:57;103256.41;;;6.25;86.88
10064;BME280;5071;52.360;13.134;2023-02-13T21:43:00;103267.84;;;6.26;86.81
10064;BME280;5071;52.360;13.134;2023-02-13T21:48:03;103268.19;;;6.33;85.31
10064;BME280;5071;52.360;13.134;2023-02-13T21:53:05;103261.75;;;6.46;83.99
10064;BME280;5071;52.360;13.134;2023-02-13T21:58:08;103268.97;;;6.50;83.64
10064;BME280;5071;52.360;13.134;2023-02-13T22:03:10;103265.09;;;6.42;83.99
10064;BME280;5071;52.360;13.134;2023-02-13T22:08:12;103258.34;;;6.29;84.33
10064;BME280;5071;52.360;13.134;2023-02-13T22:13:16;103270.50;;;6.26;84.01
10064;BME280;5071;52.360;13.134;2023-02-13T22:18:18;103273.13;;;6.26;84.59
10064;BME280;5071;52.360;13.134;2023-02-13T22:23:20;103279.22;;;6.25;84.52
10064;BME280;5071;52.360;13.134;2023-02-13T22:28:23;103276.38;;;6.20;85.01
10064;BME280;5071;52.360;13.134;2023-02-13T22:33:26;103282.03;;;6.10;85.48
10064;BME280;5071;52.360;13.134;2023-02-13T22:38:30;103285.19;;;6.20;83.03
10064;BME280;5071;52.360;13.134;2023-02-13T22:43:34;103293.19;;;6.22;82.60
10064;BME280;5071;52.360;13.134;2023-02-13T22:48:37;103289.84;;;6.26;83.00
10064;BME280;5071;52.360;13.134;2023-02-13T22:53:39;103295.19;;;6.08;84.04
10064;BME280;5071;52.360;13.134;2023-02-13T22:58:43;103290.31;;;6.17;82.97
10064;BME280;5071;52.360;13.134;2023-02-13T23:03:45;103285.19;;;6.20;82.50
10064;BME280;5071;52.360;13.134;2023-02-13T23:08:48;103288.38;;;6.13;82.97
10064;BME280;5071;52.360;13.134;2023-02-13T23:13:51;103287.19;;;6.07;83.96
10064;BME280;5071;52.360;13.134;2023-02-13T23:18:55;103279.81;;;5.99;83.79
10064;BME280;5071;52.360;13.134;2023-02-13T23:23:58;103270.94;;;5.97;83.95
10064;BME280;5071;52.360;13.134;2023-02-13T23:29:01;103278.75;;;5.96;83.06
10064;BME280;5071;52.360;13.134;2023-02-13T23:34:03;103275.88;;;6.09;82.86
10064;BME280;5071;52.360;13.134;2023-02-13T23:39:06;103284.03;;;5.96;83.13
10064;BME280;5071;52.360;13.134;2023-02-13T23:44:09;103289.66;;;5.85;83.77
10064;BME280;5071;52.360;13.134;2023-02-13T23:49:12;103292.16;;;5.82;84.57
10064;BME280;5071;52.360;13.134;2023-02-13T23:54:14;103289.81;;;5.89;83.87
10064;BME280;5071;52.360;13.134;2023-02-13T23:59:19;103280.41;;;5.76;84.76
